Time;durP1;ratioP1;P1;durP2;ratioP2;P2;SDS_P1;SDS_P2;PMS_P1;PMS_P2;Temp;Humidity;BMP_temperature;BMP_pressure;BME280_temperature;BME280_humidity;BME280_pressure;Samples;Min_cycle;Max_cycle;Signal;HPM_P1;HPM_P2
2021/09/03 00:01:41;;;;;;;14.13;5.23;;;12.30;99.90;;;;;;4963867;28;20863;-84
2021/09/03 00:04:07;;;;;;;9.33;3.77;;;12.20;99.90;;;;;;4978973;28;20250;-84
2021/09/03 00:06:33;;;;;;;8.83;4.37;;;12.30;99.90;;;;;;4963061;28;20213;-85
2021/09/03 00:08:59;;;;;;;12.07;4.93;;;12.30;99.90;;;;;;4962567;28;20220;-84
2021/09/03 00:11:24;;;;;;;10.67;5.73;;;12.30;99.90;;;;;;4962908;28;20271;-85
2021/09/03 00:13:50;;;;;;;11.97;5.10;;;12.30;99.90;;;;;;4962951;28;20240;-85
2021/09/03 00:16:18;;;;;;;10.23;4.57;;;12.40;99.90;;;;;;4948014;28;20227;-86
2021/09/03 00:18:46;;;;;;;5.70;3.30;;;12.40;99.90;;;;;;4979233;28;20789;-85
2021/09/03 00:21:12;;;;;;;10.60;3.73;;;12.40;99.90;;;;;;4963364;28;20248;-85
2021/09/03 00:23:38;;;;;;;9.57;5.40;;;12.40;99.90;;;;;;4962980;28;20238;-84
2021/09/03 00:26:04;;;;;;;8.67;5.07;;;12.30;99.90;;;;;;4963465;28;20903;-86
2021/09/03 00:28:29;;;;;;;10.20;4.10;;;12.30;99.90;;;;;;4978170;28;20216;-86
2021/09/03 00:30:55;;;;;;;7.60;4.43;;;12.30;99.90;;;;;;4979747;28;20193;-86
2021/09/03 00:33:21;;;;;;;10.00;5.43;;;12.30;99.90;;;;;;4963458;28;20666;-85
2021/09/03 00:35:47;;;;;;;12.90;5.53;;;12.30;99.90;;;;;;4965174;28;20223;-85
2021/09/03 00:38:12;;;;;;;10.20;3.87;;;12.20;99.90;;;;;;4964451;28;20243;-85
2021/09/03 00:40:38;;;;;;;7.17;4.20;;;12.10;99.90;;;;;;4964123;28;20593;-86
2021/09/03 00:43:04;;;;;;;21.17;5.93;;;12.20;99.90;;;;;;4964337;28;20204;-85
2021/09/03 00:45:30;;;;;;;9.23;5.30;;;12.20;99.90;;;;;;4963973;28;20228;-84
2021/09/03 00:47:55;;;;;;;9.67;4.13;;;12.20;99.90;;;;;;4964399;28;20221;-85
2021/09/03 00:50:22;;;;;;;7.57;4.57;;;12.10;99.90;;;;;;4965168;28;20685;-85
2021/09/03 00:52:48;;;;;;;6.57;4.50;;;12.10;99.90;;;;;;4983227;28;20290;-85
2021/09/03 00:55:13;;;;;;;8.73;4.03;;;12.10;99.90;;;;;;4984665;28;20951;-84
2021/09/03 00:57:39;;;;;;;11.37;4.63;;;12.10;99.90;;;;;;4969382;28;20228;-84
2021/09/03 01:00:05;;;;;;;9.83;5.23;;;12.00;99.90;;;;;;4952016;28;20220;-87
2021/09/03 01:02:31;;;;;;;9.33;4.50;;;12.10;99.90;;;;;;4968137;28;20240;-85
2021/09/03 01:04:57;;;;;;;15.93;5.17;;;12.10;99.90;;;;;;4967616;28;20685;-86
2021/09/03 01:07:23;;;;;;;14.10;6.33;;;12.10;99.90;;;;;;4967173;28;20207;-87
2021/09/03 01:09:49;;;;;;;12.83;5.07;;;12.10;99.90;;;;;;4967689;28;20646;-85
2021/09/03 01:12:16;;;;;;;10.63;4.73;;;12.10;99.90;;;;;;4967076;28;20278;-84
2021/09/03 01:14:41;;;;;;;10.83;4.33;;;12.10;99.90;;;;;;4967360;28;20247;-84
2021/09/03 01:17:07;;;;;;;5.57;3.37;;;12.10;99.90;;;;;;4983361;28;20248;-86
2021/09/03 01:19:33;;;;;;;9.77;4.87;;;12.00;99.90;;;;;;4965960;28;20284;-85
2021/09/03 01:21:58;;;;;;;11.77;5.30;;;12.00;99.90;;;;;;4966939;28;20193;-85
2021/09/03 01:24:24;;;;;;;11.27;5.27;;;12.00;99.90;;;;;;4966579;28;20220;-84
2021/09/03 01:26:50;;;;;;;7.90;4.47;;;11.90;99.90;;;;;;4967619;28;20219;-85
2021/09/03 01:29:16;;;;;;;23.37;4.67;;;11.90;99.90;;;;;;4951452;28;20239;-84
2021/09/03 01:31:42;;;;;;;9.83;4.43;;;11.90;99.90;;;;;;4967865;28;20651;-86
2021/09/03 01:34:08;;;;;;;14.73;5.57;;;11.80;99.90;;;;;;4967493;28;20195;-84
2021/09/03 01:36:34;;;;;;;9.13;4.17;;;11.80;99.90;;;;;;4983541;28;20217;-87
2021/09/03 01:39:00;;;;;;;7.80;3.80;;;11.70;99.90;;;;;;4966920;28;20797;-86
2021/09/03 01:41:27;;;;;;;11.67;5.23;;;11.80;99.90;;;;;;4982758;28;20443;-85
2021/09/03 01:43:53;;;;;;;12.80;5.07;;;11.80;99.90;;;;;;4983689;28;20307;-85
2021/09/03 01:46:19;;;;;;;9.70;5.50;;;11.80;99.90;;;;;;4967262;28;20315;-84
2021/09/03 01:48:45;;;;;;;5.93;3.93;;;11.80;99.90;;;;;;4983115;28;20222;-85
2021/09/03 01:51:11;;;;;;;7.73;4.17;;;11.80;99.90;;;;;;4967184;28;20221;-86
2021/09/03 01:53:37;;;;;;;7.73;4.33;;;11.80;99.90;;;;;;4967325;28;20248;-85
2021/09/03 01:56:04;;;;;;;13.80;4.77;;;11.80;99.90;;;;;;4966542;28;20303;-84
2021/09/03 01:58:29;;;;;;;9.50;5.00;;;11.80;99.90;;;;;;4966278;28;20254;-86
2021/09/03 02:00:55;;;;;;;10.73;4.67;;;11.80;99.90;;;;;;4983406;28;20226;-84
2021/09/03 02:03:21;;;;;;;11.57;6.50;;;11.70;99.90;;;;;;4965786;28;20244;-85
2021/09/03 02:05:47;;;;;;;10.50;5.30;;;11.80;99.90;;;;;;4966767;28;20228;-85
2021/09/03 02:08:12;;;;;;;10.23;4.80;;;11.70;99.90;;;;;;4966034;28;21086;-84
2021/09/03 02:10:38;;;;;;;5.63;4.47;;;11.70;99.90;;;;;;4965983;28;20267;-86
2021/09/03 02:13:04;;;;;;;9.17;4.17;;;11.70;99.90;;;;;;4983540;28;20196;-84
2021/09/03 02:15:30;;;;;;;9.93;5.10;;;11.70;99.90;;;;;;4966159;28;20735;-84
2021/09/03 02:17:56;;;;;;;6.80;4.87;;;11.60;99.90;;;;;;4966784;28;20278;-84
2021/09/03 02:20:22;;;;;;;7.80;5.10;;;11.50;99.90;;;;;;4966491;28;20315;-86
2021/09/03 02:22:48;;;;;;;7.77;5.07;;;11.60;99.90;;;;;;4982118;28;20347;-86
2021/09/03 02:25:13;;;;;;;6.90;3.83;;;11.50;99.90;;;;;;4967905;28;20193;-85
2021/09/03 02:27:39;;;;;;;10.10;5.93;;;11.50;99.90;;;;;;4966464;28;20224;-84
2021/09/03 02:30:07;;;;;;;11.17;5.03;;;11.50;99.90;;;;;;4966140;28;20204;-84
2021/09/03 02:32:33;;;;;;;12.80;5.30;;;11.40;99.90;;;;;;4965945;28;20217;-84
2021/09/03 02:34:58;;;;;;;9.00;4.20;;;11.50;99.90;;;;;;4982363;28;20736;-85
2021/09/03 02:37:24;;;;;;;14.13;5.20;;;11.50;99.90;;;;;;4973030;28;20217;-86
2021/09/03 02:39:50;;;;;;;15.00;4.00;;;11.40;99.90;;;;;;4982531;28;20235;-85
2021/09/03 02:42:16;;;;;;;4.33;3.87;;;11.40;99.90;;;;;;4966117;28;20228;-85
2021/09/03 02:44:42;;;;;;;2.70;2.37;;;11.30;99.90;;;;;;4966570;28;20594;-85
2021/09/03 02:47:08;;;;;;;18.03;3.43;;;11.20;99.90;;;;;;4965364;28;20701;-85
2021/09/03 02:49:34;;;;;;;3.87;2.80;;;11.10;99.90;;;;;;4966012;28;20193;-84
2021/09/03 02:52:00;;;;;;;6.30;3.87;;;11.10;99.90;;;;;;4982063;28;20708;-86
2021/09/03 02:54:26;;;;;;;10.33;5.07;;;11.10;99.90;;;;;;4966314;28;20220;-84
2021/09/03 02:56:51;;;;;;;7.00;4.37;;;11.10;99.90;;;;;;4966068;28;20216;-85
2021/09/03 02:59:17;;;;;;;11.57;5.07;;;11.20;99.90;;;;;;4965573;28;20686;-86
2021/09/03 03:01:43;;;;;;;8.87;4.27;;;11.30;99.90;;;;;;4966283;28;20308;-84
2021/09/03 03:04:09;;;;;;;5.73;4.37;;;11.30;99.90;;;;;;4966936;28;20271;-87
2021/09/03 03:06:34;;;;;;;9.73;4.70;;;11.30;99.90;;;;;;4965642;28;20706;-85
2021/09/03 03:09:00;;;;;;;10.47;4.53;;;11.30;99.90;;;;;;4966247;28;20268;-86
2021/09/03 03:11:26;;;;;;;10.07;5.13;;;11.20;99.90;;;;;;4965140;28;20231;-86
2021/09/03 03:14:01;;;;;;;5.50;4.10;;;11.20;99.90;;;;;;4965689;28;20220;-85
2021/09/03 03:16:27;;;;;;;7.63;4.03;;;11.10;99.90;;;;;;4979575;28;20208;-84
2021/09/03 03:18:53;;;;;;;7.37;3.17;;;11.10;99.90;;;;;;4981512;28;20283;-86
2021/09/03 03:21:19;;;;;;;8.33;3.63;;;11.00;99.90;;;;;;4981004;28;20232;-84
2021/09/03 03:23:44;;;;;;;12.90;4.57;;;11.00;99.90;;;;;;4981025;28;20216;-85
2021/09/03 03:26:10;;;;;;;9.17;6.10;;;11.00;99.90;;;;;;4964416;28;20272;-84
2021/09/03 03:28:36;;;;;;;6.73;2.47;;;11.00;99.90;;;;;;4964372;28;20203;-86
2021/09/03 03:31:01;;;;;;;7.80;4.07;;;10.90;99.90;;;;;;4965564;28;20773;-86
2021/09/03 03:33:27;;;;;;;7.00;4.53;;;11.00;99.90;;;;;;4980666;28;20415;-85
2021/09/03 03:35:53;;;;;;;11.13;5.47;;;11.10;99.90;;;;;;4933138;28;20275;-87
2021/09/03 03:38:19;;;;;;;6.20;3.47;;;11.10;99.90;;;;;;4964154;28;20736;-86
2021/09/03 03:40:44;;;;;;;6.70;3.70;;;11.00;99.90;;;;;;4964306;28;20701;-86
2021/09/03 03:43:10;;;;;;;7.73;4.03;;;11.00;99.90;;;;;;4965890;28;20778;-85
2021/09/03 03:45:36;;;;;;;9.97;5.10;;;11.00;99.90;;;;;;4964417;28;20228;-87
2021/09/03 03:48:02;;;;;;;7.27;3.97;;;10.90;99.90;;;;;;4964512;28;20716;-85
2021/09/03 03:50:27;;;;;;;10.37;5.33;;;11.00;99.90;;;;;;4965268;28;20247;-85
2021/09/03 03:52:53;;;;;;;8.23;4.33;;;11.00;99.90;;;;;;4980258;28;20613;-85
2021/09/03 03:55:19;;;;;;;6.03;3.30;;;11.10;99.90;;;;;;4981720;28;20704;-85
2021/09/03 03:57:45;;;;;;;7.83;3.80;;;11.00;99.90;;;;;;4980910;28;20231;-85
2021/09/03 04:00:11;;;;;;;10.30;5.43;;;11.00;99.90;;;;;;4965431;28;20232;-86
2021/09/03 04:02:37;;;;;;;10.80;4.93;;;11.10;99.90;;;;;;4964055;28;20224;-85
2021/09/03 04:05:03;;;;;;;11.37;4.23;;;11.20;99.90;;;;;;4980480;28;20990;-85
2021/09/03 04:07:28;;;;;;;6.80;2.77;;;11.20;99.90;;;;;;4964048;28;20283;-84
2021/09/03 04:09:54;;;;;;;7.70;2.97;;;11.20;99.90;;;;;;4964789;28;20207;-85
2021/09/03 04:12:20;;;;;;;10.43;3.63;;;11.20;99.90;;;;;;4964453;28;20221;-85
2021/09/03 04:14:46;;;;;;;13.53;5.13;;;11.30;99.90;;;;;;4979978;28;20234;-85
2021/09/03 04:17:11;;;;;;;11.67;6.33;;;11.40;99.90;;;;;;4979543;28;20636;-87
2021/09/03 04:19:37;;;;;;;8.17;4.50;;;11.60;99.90;;;;;;4977877;28;20283;-84
2021/09/03 04:22:03;;;;;;;7.73;4.10;;;11.60;99.90;;;;;;4978975;28;20200;-85
2021/09/03 04:24:29;;;;;;;5.93;2.33;;;11.40;99.90;;;;;;4963934;28;20217;-85
2021/09/03 04:26:56;;;;;;;7.00;3.83;;;11.40;99.90;;;;;;4947224;28;20263;-85
2021/09/03 04:29:23;;;;;;;9.53;3.83;;;11.50;99.90;;;;;;4963514;28;20228;-86
2021/09/03 04:31:49;;;;;;;5.93;3.63;;;11.60;99.90;;;;;;4965035;28;20833;-87
2021/09/03 04:34:14;;;;;;;7.00;4.63;;;11.60;99.90;;;;;;4964397;28;20242;-86
2021/09/03 04:36:40;;;;;;;6.33;4.20;;;11.70;99.90;;;;;;4979995;28;20220;-85
2021/09/03 04:39:06;;;;;;;7.10;3.23;;;11.70;99.90;;;;;;4963880;28;20617;-85
2021/09/03 04:41:31;;;;;;;5.93;2.60;;;11.80;99.90;;;;;;4963448;28;20220;-84
2021/09/03 04:43:57;;;;;;;7.53;3.67;;;11.80;99.90;;;;;;4963808;28;20270;-85
2021/09/03 04:46:23;;;;;;;7.77;3.90;;;11.80;99.90;;;;;;4963743;28;20231;-85
2021/09/03 04:48:49;;;;;;;8.37;4.30;;;11.90;99.90;;;;;;4964066;28;20208;-86
2021/09/03 04:51:14;;;;;;;10.93;5.10;;;12.00;99.90;;;;;;4965156;28;20299;-84
2021/09/03 04:53:40;;;;;;;11.27;3.77;;;12.10;99.90;;;;;;4963909;28;20235;-86
2021/09/03 04:56:06;;;;;;;8.03;4.83;;;12.20;99.90;;;;;;4964593;28;20231;-85
2021/09/03 04:58:32;;;;;;;6.80;4.00;;;12.30;99.90;;;;;;4979658;28;20216;-86
2021/09/03 05:00:58;;;;;;;7.30;4.53;;;12.40;99.90;;;;;;4980014;28;20189;-84
2021/09/03 05:03:23;;;;;;;12.47;6.37;;;12.50;99.90;;;;;;4979489;28;21158;-86
2021/09/03 05:05:49;;;;;;;9.30;5.27;;;12.60;99.90;;;;;;4980051;28;20669;-86
2021/09/03 05:08:15;;;;;;;7.03;4.73;;;12.60;99.90;;;;;;4979899;28;20235;-85
2021/09/03 05:10:41;;;;;;;7.33;3.77;;;12.70;99.90;;;;;;4947415;28;20666;-85
2021/09/03 05:13:07;;;;;;;10.97;3.97;;;12.70;99.90;;;;;;4940282;28;20196;-85
2021/09/03 05:15:37;;;;;;;8.57;3.47;;;12.70;99.90;;;;;;4963029;28;20228;-85
2021/09/03 05:18:03;;;;;;;14.43;6.53;;;12.80;99.90;;;;;;4979379;28;20228;-87
2021/09/03 05:20:29;;;;;;;10.73;5.50;;;12.80;99.90;;;;;;4979270;28;20228;-87
2021/09/03 05:22:56;;;;;;;26.03;5.07;;;12.90;99.90;;;;;;4963461;28;20217;-86
2021/09/03 05:25:22;;;;;;;6.17;4.07;;;13.00;99.90;;;;;;4963872;28;20602;-87
2021/09/03 05:27:48;;;;;;;11.60;5.33;;;13.10;99.90;;;;;;4963536;28;20192;-85
2021/09/03 05:30:14;;;;;;;12.30;5.33;;;13.10;99.90;;;;;;4979654;28;20217;-86
2021/09/03 05:32:40;;;;;;;19.70;4.77;;;13.20;99.90;;;;;;4979185;28;20216;-86
2021/09/03 05:35:07;;;;;;;12.13;5.13;;;13.30;99.90;;;;;;4964849;28;20216;-86
2021/09/03 05:37:33;;;;;;;10.03;5.70;;;13.30;99.90;;;;;;4979584;28;20251;-85
2021/09/03 05:40:00;;;;;;;11.10;5.03;;;13.40;99.90;;;;;;4967174;28;20693;-86
2021/09/03 05:42:27;;;;;;;13.10;5.87;;;13.60;99.90;;;;;;4983235;28;20661;-85
2021/09/03 05:44:53;;;;;;;13.10;5.23;;;13.60;99.90;;;;;;4951166;28;20225;-86
2021/09/03 05:47:19;;;;;;;10.50;5.87;;;13.70;99.90;;;;;;4967260;28;20223;-85
2021/09/03 05:49:44;;;;;;;10.80;5.17;;;13.80;99.90;;;;;;4967184;28;20232;-85
2021/09/03 05:52:10;;;;;;;12.57;6.17;;;13.90;99.90;;;;;;4976090;28;20185;-86
2021/09/03 05:54:36;;;;;;;21.47;7.00;;;14.00;99.90;;;;;;4982966;28;20231;-84
2021/09/03 05:57:04;;;;;;;13.23;6.53;;;14.00;99.90;;;;;;4965399;28;20640;-85
2021/09/03 05:59:30;;;;;;;9.67;6.10;;;14.10;99.90;;;;;;4964491;28;20489;-85
2021/09/03 06:01:55;;;;;;;15.43;5.20;;;14.10;99.90;;;;;;4964560;28;20256;-88
2021/09/03 06:04:21;;;;;;;12.90;6.20;;;14.30;99.90;;;;;;4965528;28;20662;-84
2021/09/03 06:06:47;;;;;;;9.90;5.70;;;14.40;99.90;;;;;;4967106;28;20247;-85
2021/09/03 06:09:13;;;;;;;9.73;5.73;;;14.50;99.90;;;;;;4966151;28;20213;-86
2021/09/03 06:11:38;;;;;;;17.33;7.87;;;14.50;99.90;;;;;;4967132;28;20224;-86
2021/09/03 06:14:04;;;;;;;11.00;5.63;;;14.60;99.90;;;;;;4966931;28;20250;-89
2021/09/03 06:16:30;;;;;;;12.67;5.83;;;14.70;99.90;;;;;;4967014;28;20223;-85
2021/09/03 06:18:56;;;;;;;14.60;5.33;;;14.80;99.90;;;;;;4968199;28;20208;-89
2021/09/03 06:21:23;;;;;;;14.63;5.60;;;14.90;99.90;;;;;;4982907;28;20224;-86
2021/09/03 06:23:49;;;;;;;11.30;4.93;;;15.00;99.90;;;;;;4982351;28;20243;-86
2021/09/03 06:26:15;;;;;;;17.07;6.57;;;15.10;99.90;;;;;;4965711;28;20219;-87
2021/09/03 06:28:41;;;;;;;10.93;6.43;;;15.20;99.90;;;;;;4966354;28;20260;-86
2021/09/03 06:31:07;;;;;;;9.30;5.07;;;15.40;99.90;;;;;;4983500;28;20235;-87
2021/09/03 06:33:32;;;;;;;10.00;6.57;;;15.40;99.90;;;;;;4983185;28;20212;-86
2021/09/03 06:35:58;;;;;;;12.47;5.67;;;15.40;99.90;;;;;;4966279;28;20553;-88
2021/09/03 06:38:26;;;;;;;12.20;6.23;;;15.50;99.90;;;;;;4972373;28;20328;-87
2021/09/03 06:40:52;;;;;;;11.60;5.93;;;15.60;99.90;;;;;;4965376;28;20228;-90
2021/09/03 06:43:18;;;;;;;10.97;5.13;;;15.70;99.90;;;;;;4981654;28;20352;-86
2021/09/03 06:45:44;;;;;;;13.97;5.87;;;15.80;99.90;;;;;;4966028;28;20714;-88
2021/09/03 06:48:09;;;;;;;9.50;5.53;;;15.80;99.90;;;;;;4966527;28;20221;-88
2021/09/03 06:50:35;;;;;;;13.37;5.57;;;15.90;99.90;;;;;;4949818;28;20212;-88
2021/09/03 06:53:01;;;;;;;15.23;5.43;;;15.90;99.90;;;;;;4968036;28;20240;-91
2021/09/03 06:55:26;;;;;;;11.87;6.07;;;15.90;99.90;;;;;;4965591;28;20200;-86
2021/09/03 06:57:52;;;;;;;12.43;5.10;;;16.00;99.90;;;;;;4984320;28;20208;-88
2021/09/03 07:00:26;;;;;;;11.70;5.67;;;16.00;99.90;;;;;;4968036;28;20231;-90
2021/09/03 07:02:52;;;;;;;22.30;5.83;;;16.10;99.90;;;;;;4967135;28;20711;-89
2021/09/03 07:05:17;;;;;;;11.77;5.23;;;16.00;99.90;;;;;;4982405;28;20228;-88
2021/09/03 07:07:45;;;;;;;12.83;6.87;;;16.10;99.90;;;;;;4966499;28;20704;-90
2021/09/03 07:10:11;;;;;;;11.37;5.53;;;16.20;99.90;;;;;;4967115;28;20717;-89
2021/09/03 07:12:36;;;;;;;19.50;6.43;;;16.30;99.90;;;;;;4981263;28;20303;-89
2021/09/03 07:15:02;;;;;;;9.70;6.10;;;16.40;99.90;;;;;;4966718;28;20647;-89
2021/09/03 07:17:28;;;;;;;11.07;4.90;;;16.40;99.90;;;;;;4982362;28;20659;-91
2021/09/03 07:19:54;;;;;;;10.73;4.33;;;16.50;99.90;;;;;;4984624;28;20232;-94
2021/09/03 07:22:19;;;;;;;13.63;5.07;;;16.50;99.90;;;;;;4967954;28;20196;-91
2021/09/03 07:24:45;;;;;;;15.07;4.37;;;16.40;99.90;;;;;;4951463;28;20220;-93
2021/09/03 07:27:11;;;;;;;6.33;4.53;;;16.60;99.90;;;;;;4967348;28;20551;-89
2021/09/03 07:29:37;;;;;;;10.50;3.23;;;16.70;99.90;;;;;;4966294;28;20240;-89
2021/09/03 07:32:03;;;;;;;8.60;4.07;;;16.90;99.90;;;;;;4966561;28;20284;-88
2021/09/03 07:34:29;;;;;;;4.80;3.77;;;17.00;99.90;;;;;;4963642;28;20200;-91
2021/09/03 07:36:55;;;;;;;8.07;3.83;;;17.10;99.90;;;;;;4965955;28;20207;-91
2021/09/03 07:39:21;;;;;;;5.77;4.47;;;17.20;99.90;;;;;;4964889;28;20704;-91
2021/09/03 07:41:47;;;;;;;8.17;4.33;;;17.30;99.90;;;;;;4966276;28;20213;-91
2021/09/03 07:44:13;;;;;;;10.47;4.57;;;17.40;99.90;;;;;;4965952;28;20220;-93
2021/09/03 07:46:39;;;;;;;4.90;2.83;;;17.40;99.90;;;;;;4965746;28;20193;-93
2021/09/03 07:49:06;;;;;;;8.73;3.90;;;17.40;99.90;;;;;;4966765;28;20223;-91
2021/09/03 07:51:32;;;;;;;8.40;3.20;;;17.40;99.90;;;;;;4950118;28;20216;-94
2021/09/03 07:53:58;;;;;;;5.53;3.10;;;17.50;99.90;;;;;;4964956;28;20216;-93
2021/09/03 07:56:24;;;;;;;5.83;3.80;;;17.50;99.90;;;;;;4964747;28;20236;-92
2021/09/03 07:58:52;;;;;;;6.83;3.17;;;17.40;99.90;;;;;;4964633;28;20244;-92
2021/09/03 08:01:18;;;;;;;8.37;3.93;;;17.40;99.90;;;;;;4964808;28;20319;-91
2021/09/03 08:03:44;;;;;;;4.47;3.20;;;17.30;99.90;;;;;;4965592;28;20843;-91
2021/09/03 08:06:09;;;;;;;7.00;3.17;;;17.10;99.90;;;;;;4966292;28;20263;-90
2021/09/03 08:08:35;;;;;;;9.77;3.13;;;17.20;99.90;;;;;;4965511;28;20609;-93
2021/09/03 08:11:04;;;;;;;11.97;3.80;;;17.30;99.90;;;;;;4965103;28;20580;-90
2021/09/03 08:13:29;;;;;;;6.57;3.90;;;17.50;99.90;;;;;;4982106;28;20237;-93
2021/09/03 08:15:55;;;;;;;12.03;3.20;;;17.70;99.90;;;;;;4966170;28;20626;-92
2021/09/03 08:18:21;;;;;;;7.03;3.37;;;17.80;99.90;;;;;;4982339;28;20323;-93
2021/09/03 08:20:47;;;;;;;12.37;3.43;;;17.90;99.90;;;;;;4964878;28;20225;-92
2021/09/03 08:23:13;;;;;;;6.20;2.43;;;18.00;99.90;;;;;;4966270;28;20236;-91
2021/09/03 08:25:39;;;;;;;10.13;3.33;;;17.90;99.90;;;;;;4964623;28;20192;-88
2021/09/03 08:28:05;;;;;;;5.17;3.37;;;17.70;99.90;;;;;;4966032;28;20972;-90
2021/09/03 08:30:31;;;;;;;10.43;4.97;;;17.60;99.90;;;;;;4965124;28;20221;-89
2021/09/03 08:32:57;;;;;;;6.10;3.77;;;17.60;99.90;;;;;;4964383;28;20235;-90
2021/09/03 08:35:24;;;;;;;7.60;3.70;;;17.60;99.90;;;;;;4965684;28;20225;-91
2021/09/03 08:37:51;;;;;;;7.80;4.07;;;17.80;99.90;;;;;;4980431;28;20240;-89
2021/09/03 08:40:16;;;;;;;7.27;4.20;;;17.80;99.90;;;;;;4981457;28;20244;-89
2021/09/03 08:42:43;;;;;;;6.90;4.40;;;18.00;99.90;;;;;;4981385;28;20216;-89
2021/09/03 08:45:11;;;;;;;6.00;3.70;;;18.00;99.90;;;;;;4966213;28;20232;-92
2021/09/03 08:47:42;;;;;;;14.43;4.80;;;17.80;99.90;;;;;;4980642;28;20291;-91
2021/09/03 08:50:09;;;;;;;9.57;4.60;;;17.50;99.90;;;;;;4964110;28;20220;-93
2021/09/03 08:52:36;;;;;;;7.87;4.30;;;17.60;99.90;;;;;;4963279;28;20235;-89
2021/09/03 08:55:01;;;;;;;6.20;3.60;;;17.50;99.90;;;;;;4964578;28;20189;-89
2021/09/03 08:57:27;;;;;;;12.60;4.80;;;17.70;99.90;;;;;;4964620;28;20224;-89
2021/09/03 08:59:53;;;;;;;8.80;4.13;;;17.50;99.90;;;;;;4965130;28;20705;-90
2021/09/03 09:02:22;;;;;;;6.60;4.20;;;17.50;99.90;;;;;;4963998;28;20224;-88
2021/09/03 09:04:51;;;;;;;6.77;4.37;;;17.40;99.90;;;;;;4964362;28;20301;-90
2021/09/03 09:07:17;;;;;;;7.37;4.23;;;17.40;99.90;;;;;;4965513;28;20188;-91
2021/09/03 09:09:47;;;;;;;7.30;4.13;;;17.60;99.90;;;;;;4964999;28;20227;-92
2021/09/03 09:12:15;;;;;;;7.70;4.03;;;18.00;99.90;;;;;;4966088;28;20318;-92
2021/09/03 09:15:19;;;;;;;9.20;4.20;;;17.80;99.90;;;;;;4984457;28;20223;-88
2021/09/03 09:17:45;;;;;;;9.30;3.90;;;17.70;99.90;;;;;;4969100;28;20232;-89
2021/09/03 09:20:13;;;;;;;7.97;4.03;;;17.80;99.90;;;;;;4968584;28;20228;-90
2021/09/03 09:22:57;;;;;;;8.97;3.57;;;17.80;99.90;;;;;;4983797;28;20188;-90
2021/09/03 09:25:35;;;;;;;7.80;4.23;;;18.20;99.90;;;;;;4967060;28;20200;-89
2021/09/03 09:28:18;;;;;;;9.43;3.80;;;18.50;99.90;;;;;;4967161;28;20184;-88
2021/09/03 09:30:44;;;;;;;5.13;3.37;;;18.70;99.90;;;;;;4965388;28;20773;-88
2021/09/03 09:33:15;;;;;;;8.37;3.70;;;18.80;99.90;;;;;;4965987;28;20220;-89
2021/09/03 09:35:44;;;;;;;9.83;4.10;;;18.90;99.90;;;;;;4966486;28;20271;-88
2021/09/03 09:38:10;;;;;;;9.43;2.90;;;19.10;99.90;;;;;;4983196;28;20256;-90
2021/09/03 09:40:55;;;;;;;5.63;3.47;;;19.10;99.90;;;;;;4967550;28;20260;-89
2021/09/03 09:43:32;;;;;;;7.50;2.73;;;19.00;99.90;;;;;;4971025;28;20199;-89
2021/09/03 09:46:10;;;;;;;4.10;2.77;;;19.00;99.90;;;;;;4967381;28;20195;-89
2021/09/03 09:48:51;;;;;;;4.20;2.87;;;19.10;99.90;;;;;;4982858;28;20317;-91
2021/09/03 09:51:29;;;;;;;10.37;2.80;;;18.60;99.90;;;;;;4965860;28;20295;-89
2021/09/03 09:54:08;;;;;;;9.20;3.50;;;18.60;99.90;;;;;;4968282;28;20205;-90
2021/09/03 09:56:35;;;;;;;5.23;2.60;;;18.70;99.90;;;;;;4968184;28;20228;-88
2021/09/03 09:59:04;;;;;;;4.70;2.40;;;18.40;99.90;;;;;;4966588;28;20232;-89
2021/09/03 10:01:32;;;;;;;10.87;3.07;;;18.30;99.90;;;;;;4968375;28;20208;-87
2021/09/03 10:03:58;;;;;;;7.07;3.00;;;18.30;99.90;;;;;;4967510;28;20196;-89
2021/09/03 10:06:25;;;;;;;11.33;3.50;;;18.40;99.90;;;;;;4966760;28;20217;-92
2021/09/03 10:08:54;;;;;;;5.10;3.20;;;18.50;99.90;;;;;;5002478;28;20270;-91
2021/09/03 10:11:20;;;;;;;10.33;2.87;;;18.60;99.90;;;;;;5003618;28;20580;-93
2021/09/03 10:13:47;;;;;;;7.17;4.00;;;18.60;99.90;;;;;;4987280;28;20220;-91
2021/09/03 10:16:14;;;;;;;6.10;3.53;;;18.40;99.90;;;;;;4987245;28;20188;-93
2021/09/03 10:18:42;;;;;;;6.83;3.50;;;18.60;99.90;;;;;;4987113;28;20224;-94
2021/09/03 10:21:09;;;;;;;11.27;3.60;;;18.50;99.90;;;;;;4980193;28;20697;-91
2021/09/03 10:23:50;;;;;;;5.93;3.30;;;18.80;99.90;;;;;;4995695;28;20224;-91
2021/09/03 10:26:20;;;;;;;11.87;3.57;;;18.60;99.90;;;;;;4981548;28;20204;-90
2021/09/03 10:28:46;;;;;;;5.47;3.27;;;18.70;99.90;;;;;;4995558;28;20705;-89
2021/09/03 10:31:15;;;;;;;14.67;3.97;;;18.70;99.90;;;;;;4985477;28;20192;-90
2021/09/03 10:33:40;;;;;;;7.10;3.10;;;19.00;99.90;;;;;;4968123;28;20619;-92
2021/09/03 10:36:06;;;;;;;13.67;4.07;;;19.10;99.90;;;;;;4969055;28;20796;-91
2021/09/03 10:38:34;;;;;;;7.33;3.03;;;18.80;99.90;;;;;;4984864;28;20271;-91
2021/09/03 10:41:04;;;;;;;8.30;3.93;;;18.90;99.90;;;;;;4984833;28;20532;-91
2021/09/03 10:43:39;;;;;;;6.97;4.40;;;19.00;99.90;;;;;;4968846;28;20617;-90
2021/09/03 10:46:11;;;;;;;8.00;4.27;;;19.30;99.90;;;;;;4969190;28;20204;-91
2021/09/03 10:48:37;;;;;;;8.70;3.83;;;19.50;99.90;;;;;;4972375;28;20224;-91
2021/09/03 10:51:05;;;;;;;11.30;4.17;;;19.30;99.90;;;;;;4972309;28;20235;-90
2021/09/03 10:53:37;;;;;;;6.97;3.83;;;19.30;99.90;;;;;;4974061;28;20223;-90
2021/09/03 10:56:21;;;;;;;8.53;3.90;;;19.40;99.90;;;;;;4991622;28;20223;-91
2021/09/03 10:58:48;;;;;;;8.93;3.90;;;19.70;99.90;;;;;;4979038;28;20248;-92
2021/09/03 11:01:26;;;;;;;8.03;3.70;;;19.90;99.90;;;;;;4981122;28;20200;-90
2021/09/03 11:03:57;;;;;;;6.17;3.57;;;19.90;99.90;;;;;;4998524;28;20212;-91
2021/09/03 11:06:26;;;;;;;9.27;4.17;;;20.00;99.90;;;;;;4984687;28;20280;-90
2021/09/03 11:09:26;;;;;;;6.33;4.00;;;19.80;99.90;;;;;;4992448;28;20224;-88
2021/09/03 11:12:22;;;;;;;7.00;3.70;;;19.90;99.90;;;;;;4979035;28;20224;-91
2021/09/03 11:14:54;;;;;;;5.07;3.23;;;19.80;99.90;;;;;;4972690;28;20220;-89
2021/09/03 11:17:19;;;;;;;8.10;3.80;;;19.50;99.90;;;;;;4972228;28;20240;-87
2021/09/03 11:19:48;;;;;;;12.90;4.20;;;19.70;99.90;;;;;;4967201;28;20217;-87
2021/09/03 11:22:18;;;;;;;7.87;4.10;;;20.00;99.90;;;;;;4967003;28;20212;-87
2021/09/03 11:24:47;;;;;;;16.67;4.33;;;19.80;99.90;;;;;;4982741;28;20227;-89
2021/09/03 11:27:23;;;;;;;9.93;4.53;;;19.70;99.90;;;;;;4966916;28;20709;-87
2021/09/03 11:29:56;;;;;;;8.23;3.60;;;19.70;99.90;;;;;;4965303;28;20842;-89
2021/09/03 11:32:27;;;;;;;7.47;4.17;;;19.70;99.90;;;;;;4980513;28;20243;-89
2021/09/03 11:35:01;;;;;;;9.67;3.60;;;19.60;99.90;;;;;;4964215;28;20220;-88
2021/09/03 11:37:39;;;;;;;8.13;4.60;;;19.80;99.90;;;;;;4963488;28;20493;-87
2021/09/03 11:40:26;;;;;;;9.63;4.10;;;19.90;99.90;;;;;;4979839;28;20232;-87
2021/09/03 11:42:56;;;;;;;8.73;4.87;;;20.40;99.90;;;;;;4966015;28;20312;-89
2021/09/03 11:45:45;;;;;;;9.30;4.20;;;20.50;99.90;;;;;;4980824;28;20221;-88
2021/09/03 11:48:15;;;;;;;12.47;4.53;;;20.80;99.90;;;;;;4979498;28;20679;-87
2021/09/03 11:50:48;;;;;;;8.30;4.07;;;20.40;99.90;;;;;;4979580;28;20212;-87
2021/09/03 11:53:22;;;;;;;6.27;3.83;;;19.70;99.90;;;;;;4980308;28;20483;-87
2021/09/03 11:55:49;;;;;;;10.93;5.43;;;19.80;99.90;;;;;;4979805;28;20216;-87
2021/09/03 11:58:17;;;;;;;8.70;3.90;;;20.70;99.90;;;;;;4965140;28;20600;-87
2021/09/03 12:00:45;;;;;;;6.80;4.23;;;20.80;99.90;;;;;;4965344;28;20272;-87
2021/09/03 12:03:22;;;;;;;10.87;4.00;;;20.50;99.90;;;;;;4964919;28;20343;-87
2021/09/03 12:05:56;;;;;;;11.73;4.43;;;20.20;99.90;;;;;;4964747;28;20299;-86
2021/09/03 12:08:36;;;;;;;11.50;3.90;;;20.50;99.90;;;;;;4964292;28;20666;-89
2021/09/03 12:11:04;;;;;;;6.60;3.80;;;20.90;99.90;;;;;;4963834;28;20581;-86
2021/09/03 12:13:36;;;;;;;8.40;3.63;;;21.00;99.90;;;;;;4963733;28;20196;-87
2021/09/03 12:16:14;;;;;;;5.27;3.77;;;20.90;99.90;;;;;;4964436;28;20188;-87
2021/09/03 12:18:48;;;;;;;11.83;4.37;;;20.60;99.90;;;;;;4979324;28;20307;-86
2021/09/03 12:21:29;;;;;;;8.77;4.80;;;20.70;99.90;;;;;;4964633;28;20248;-86
2021/09/03 12:23:59;;;;;;;6.67;3.80;;;20.30;99.90;;;;;;4964435;28;20231;-87
2021/09/03 12:26:47;;;;;;;5.27;3.27;;;19.80;99.90;;;;;;4980712;28;20225;-86
2021/09/03 12:29:14;;;;;;;6.73;3.63;;;19.70;99.90;;;;;;4966136;28;20232;-87
2021/09/03 12:31:55;;;;;;;6.73;4.40;;;20.00;99.90;;;;;;4980798;28;20211;-87
2021/09/03 12:34:29;;;;;;;8.43;4.20;;;20.60;99.90;;;;;;4981059;28;20199;-87
2021/09/03 12:36:59;;;;;;;9.07;4.23;;;20.90;99.90;;;;;;4964812;28;20250;-86
2021/09/03 12:39:26;;;;;;;6.97;3.93;;;21.10;99.90;;;;;;4965401;28;20302;-85
2021/09/03 12:41:53;;;;;;;7.90;4.37;;;20.80;99.90;;;;;;4980431;28;20248;-86
2021/09/03 12:44:30;;;;;;;6.20;4.27;;;21.00;99.90;;;;;;4966322;28;20312;-86
2021/09/03 12:47:01;;;;;;;11.73;4.37;;;20.80;99.90;;;;;;4964379;28;20225;-85